Time;durP1;ratioP1;P1;durP2;ratioP2;P2;SDS_P1;SDS_P2;PMS_P1;PMS_P2;Temp;Humidity;BMP_temperature;BMP_pressure;BME280_temperature;BME280_humidity;BME280_pressure;Samples;Min_cycle;Max_cycle;Signal;HPM_P1;HPM_P2
2021/01/24 00:01:13;;;;;;;11.27;7.18;;;8.60;99.90;;;;;;5091546;28;20492;-74
2021/01/24 00:03:39;;;;;;;11.27;6.80;;;8.60;99.90;;;;;;5091259;28;20106;-75
2021/01/24 00:06:04;;;;;;;8.27;6.72;;;8.70;99.90;;;;;;5092002;28;20024;-74
2021/01/24 00:08:30;;;;;;;11.02;7.15;;;8.70;99.90;;;;;;5092008;28;20028;-73
2021/01/24 00:10:56;;;;;;;10.15;7.07;;;8.70;99.90;;;;;;5091642;28;20094;-73
2021/01/24 00:13:21;;;;;;;14.60;7.70;;;8.80;99.90;;;;;;5092032;28;20368;-73
2021/01/24 00:15:47;;;;;;;11.77;7.72;;;8.80;99.90;;;;;;5091667;28;20040;-74
2021/01/24 00:18:13;;;;;;;13.50;8.68;;;8.70;99.90;;;;;;5091955;28;20027;-74
2021/01/24 00:20:39;;;;;;;9.98;8.38;;;8.70;99.90;;;;;;5090156;28;20557;-73
2021/01/24 00:23:05;;;;;;;12.20;7.57;;;8.70;99.90;;;;;;5088557;28;20060;-74
2021/01/24 00:25:30;;;;;;;12.20;6.65;;;8.70;99.90;;;;;;5091319;28;20055;-73
2021/01/24 00:27:56;;;;;;;14.55;8.40;;;8.70;99.90;;;;;;5091428;28;20031;-73
2021/01/24 00:30:22;;;;;;;11.75;8.20;;;8.70;99.90;;;;;;5090840;28;20477;-73
2021/01/24 00:32:47;;;;;;;15.05;9.32;;;8.70;99.90;;;;;;5090993;28;20032;-74
2021/01/24 00:35:13;;;;;;;20.60;9.98;;;8.70;99.90;;;;;;5091494;28;20032;-73
2021/01/24 00:37:40;;;;;;;13.55;8.82;;;8.70;99.90;;;;;;5091678;28;20702;-74
2021/01/24 00:40:07;;;;;;;12.73;8.63;;;8.70;99.90;;;;;;5091592;28;20032;-74
2021/01/24 00:42:33;;;;;;;12.50;8.77;;;8.70;99.90;;;;;;5091908;28;20020;-74
2021/01/24 00:44:59;;;;;;;15.20;9.07;;;8.70;99.90;;;;;;5091447;28;20024;-74
2021/01/24 00:47:25;;;;;;;16.55;10.07;;;8.70;99.90;;;;;;5091505;28;20076;-73
2021/01/24 00:49:50;;;;;;;19.45;9.65;;;8.70;99.90;;;;;;5088963;28;20076;-74
2021/01/24 00:52:16;;;;;;;15.52;9.63;;;8.70;99.90;;;;;;5087938;28;20024;-74
2021/01/24 00:54:42;;;;;;;27.45;8.55;;;8.70;99.90;;;;;;5090209;28;20036;-74
2021/01/24 00:57:08;;;;;;;13.40;9.13;;;8.60;99.90;;;;;;5091640;28;20075;-73
2021/01/24 00:59:34;;;;;;;12.77;9.50;;;8.60;99.90;;;;;;5091471;28;20039;-74
2021/01/24 01:01:59;;;;;;;16.05;9.02;;;8.50;99.90;;;;;;5068524;28;20063;-74
2021/01/24 01:04:25;;;;;;;10.45;7.57;;;8.40;99.90;;;;;;5089902;28;20479;-74
2021/01/24 01:06:51;;;;;;;12.93;7.75;;;8.30;99.90;;;;;;5091459;28;20020;-75
2021/01/24 01:09:17;;;;;;;10.50;7.57;;;8.30;99.90;;;;;;5091209;28;20376;-74
2021/01/24 01:11:43;;;;;;;12.50;7.25;;;8.20;99.90;;;;;;5090574;28;20113;-74
2021/01/24 01:14:09;;;;;;;16.45;7.90;;;8.10;99.90;;;;;;5092250;28;20055;-73
2021/01/24 01:16:35;;;;;;;12.35;7.10;;;8.00;99.90;;;;;;5091604;28;20076;-74
2021/01/24 01:19:00;;;;;;;11.68;7.22;;;8.00;99.90;;;;;;5091307;28;20054;-73
2021/01/24 01:21:26;;;;;;;10.43;6.97;;;8.00;99.90;;;;;;5091311;28;20036;-74
2021/01/24 01:23:52;;;;;;;14.50;5.65;;;8.00;99.90;;;;;;5091693;28;20178;-73
2021/01/24 01:26:17;;;;;;;12.77;6.25;;;8.00;99.90;;;;;;5090661;28;20426;-73
2021/01/24 01:28:43;;;;;;;9.70;5.32;;;8.00;99.90;;;;;;5091219;28;20035;-73
2021/01/24 01:31:09;;;;;;;15.20;6.30;;;8.10;99.90;;;;;;5090573;28;20410;-74
2021/01/24 01:33:34;;;;;;;8.38;4.75;;;8.10;99.90;;;;;;5090404;28;20384;-73
2021/01/24 01:36:00;;;;;;;9.50;5.68;;;8.10;99.90;;;;;;5091215;28;20075;-73
2021/01/24 01:38:26;;;;;;;8.00;5.18;;;8.10;99.90;;;;;;5091236;28;20028;-74
2021/01/24 01:40:52;;;;;;;8.85;4.30;;;8.10;99.90;;;;;;5090734;28;20040;-74
2021/01/24 01:43:18;;;;;;;9.48;4.80;;;8.10;99.90;;;;;;5091039;28;20092;-73
2021/01/24 01:45:44;;;;;;;8.68;4.97;;;8.10;99.90;;;;;;5090377;28;20107;-74
2021/01/24 01:48:10;;;;;;;8.55;5.00;;;8.20;99.90;;;;;;5090890;28;20153;-74
2021/01/24 01:50:36;;;;;;;8.60;5.00;;;8.20;99.90;;;;;;5091071;28;20020;-74
2021/01/24 01:53:02;;;;;;;10.10;5.25;;;8.20;99.90;;;;;;5091110;28;20039;-73
2021/01/24 01:55:27;;;;;;;18.88;4.97;;;8.20;99.90;;;;;;5090229;28;20032;-73
2021/01/24 01:57:55;;;;;;;6.30;4.22;;;8.20;99.90;;;;;;5090795;28;20016;-73
2021/01/24 02:00:22;;;;;;;6.82;4.22;;;8.20;99.90;;;;;;5090806;28;20052;-74
2021/01/24 02:02:47;;;;;;;16.70;5.53;;;8.20;99.90;;;;;;5090420;28;20404;-74
2021/01/24 02:05:28;;;;;;;4.60;3.60;;;8.20;99.90;;;;;;5089110;28;20028;-73
2021/01/24 02:08:09;;;;;;;8.68;3.80;;;8.20;99.90;;;;;;5094182;28;20510;-72
2021/01/24 02:10:40;;;;;;;7.40;4.15;;;8.20;99.90;;;;;;5093877;28;20016;-73
2021/01/24 02:13:27;;;;;;;7.20;3.45;;;8.20;99.90;;;;;;5093930;28;20095;-74
2021/01/24 02:15:54;;;;;;;9.75;4.30;;;8.20;99.90;;;;;;5092486;28;20036;-74
2021/01/24 02:18:21;;;;;;;5.93;3.60;;;8.20;99.90;;;;;;5094151;28;20024;-74
2021/01/24 02:21:23;;;;;;;7.03;3.42;;;8.20;99.90;;;;;;5093124;28;20020;-74
2021/01/24 02:23:53;;;;;;;5.90;3.25;;;8.30;99.90;;;;;;5090164;28;20089;-75
2021/01/24 02:26:48;;;;;;;7.18;3.03;;;8.30;99.90;;;;;;5094396;28;20043;-74
2021/01/24 02:29:14;;;;;;;6.68;3.00;;;8.30;99.90;;;;;;5094216;28;20024;-75
2021/01/24 02:31:41;;;;;;;5.35;3.33;;;8.20;99.90;;;;;;5094325;28;20042;-74
2021/01/24 02:34:09;;;;;;;5.95;2.90;;;8.30;99.90;;;;;;5094250;28;20028;-74
2021/01/24 02:36:36;;;;;;;5.07;3.15;;;8.30;99.90;;;;;;5093648;28;20020;-74
2021/01/24 02:39:05;;;;;;;5.68;2.80;;;8.30;99.90;;;;;;5092526;28;20478;-72
2021/01/24 02:41:32;;;;;;;6.95;3.05;;;8.30;99.90;;;;;;5080313;28;20027;-74
2021/01/24 02:43:59;;;;;;;6.78;2.85;;;8.30;99.90;;;;;;5093660;28;20710;-74
2021/01/24 02:46:25;;;;;;;4.85;2.80;;;8.30;99.90;;;;;;5093926;28;20035;-73
2021/01/24 02:48:52;;;;;;;8.50;3.25;;;8.20;99.90;;;;;;5093476;28;20039;-72
2021/01/24 02:51:20;;;;;;;5.55;2.70;;;8.20;99.90;;;;;;5093440;28;20032;-73
2021/01/24 02:53:49;;;;;;;6.40;2.72;;;8.20;99.90;;;;;;5092604;28;20373;-74
2021/01/24 02:56:21;;;;;;;7.35;2.80;;;8.20;99.90;;;;;;5093030;28;20035;-74
2021/01/24 02:58:47;;;;;;;5.00;2.83;;;8.20;99.90;;;;;;5094095;28;20032;-72
2021/01/24 03:01:13;;;;;;;5.30;3.25;;;8.20;99.90;;;;;;5093438;28;20032;-74
2021/01/24 03:03:39;;;;;;;5.97;2.65;;;8.20;99.90;;;;;;5092697;28;20040;-73
2021/01/24 03:06:09;;;;;;;3.15;2.33;;;8.10;99.90;;;;;;5093120;28;20032;-74
2021/01/24 03:08:36;;;;;;;9.40;3.03;;;8.10;99.90;;;;;;5093270;28;20369;-73
2021/01/24 03:11:04;;;;;;;8.60;2.95;;;8.10;99.90;;;;;;5093677;28;20028;-74
2021/01/24 03:13:43;;;;;;;5.25;2.63;;;8.10;99.90;;;;;;5093382;28;20125;-74
2021/01/24 03:16:12;;;;;;;5.90;3.03;;;8.10;99.90;;;;;;5092769;28;20039;-73
2021/01/24 03:18:42;;;;;;;10.85;2.85;;;8.10;99.90;;;;;;5091135;28;20107;-73
2021/01/24 03:21:10;;;;;;;6.10;2.90;;;8.10;99.90;;;;;;5091206;28;20369;-72
2021/01/24 03:23:37;;;;;;;9.90;2.90;;;8.10;99.90;;;;;;5091382;28;20392;-74
2021/01/24 03:26:06;;;;;;;3.92;2.15;;;8.10;99.90;;;;;;5093061;28;20088;-74
2021/01/24 03:28:35;;;;;;;5.25;2.40;;;8.10;99.90;;;;;;5081751;28;20024;-73
2021/01/24 03:31:02;;;;;;;3.28;2.08;;;8.00;99.90;;;;;;5093722;28;20525;-73
2021/01/24 03:33:28;;;;;;;5.22;2.45;;;8.00;99.90;;;;;;5095854;28;20035;-74
2021/01/24 03:35:54;;;;;;;7.18;2.70;;;8.10;99.90;;;;;;5092861;28;20036;-74
2021/01/24 03:38:20;;;;;;;7.53;2.35;;;8.00;99.90;;;;;;5093066;28;20395;-74
2021/01/24 03:40:46;;;;;;;4.75;2.40;;;8.10;99.90;;;;;;5093010;28;20380;-73
2021/01/24 03:43:12;;;;;;;2.40;2.20;;;8.00;99.90;;;;;;5092545;28;20496;-74
2021/01/24 03:45:38;;;;;;;3.40;1.75;;;8.10;99.90;;;;;;5092361;28;20102;-74
2021/01/24 03:48:03;;;;;;;4.85;2.20;;;8.10;99.90;;;;;;5093457;28;20103;-73
2021/01/24 03:50:29;;;;;;;3.72;2.03;;;8.00;99.90;;;;;;5093402;28;20032;-73
2021/01/24 03:52:55;;;;;;;2.55;1.70;;;8.00;99.90;;;;;;5093514;28;20445;-74
2021/01/24 03:55:20;;;;;;;2.95;2.10;;;8.00;99.90;;;;;;5092335;28;20035;-72
2021/01/24 03:57:46;;;;;;;7.90;3.25;;;8.10;99.90;;;;;;5091423;28;20496;-73
2021/01/24 04:00:13;;;;;;;2.17;1.55;;;8.10;99.90;;;;;;5092905;28;20020;-73
2021/01/24 04:02:38;;;;;;;3.22;1.60;;;8.00;99.90;;;;;;5092222;28;20062;-73
2021/01/24 04:05:05;;;;;;;2.95;1.67;;;8.10;99.90;;;;;;5091226;28;20020;-73
2021/01/24 04:07:31;;;;;;;5.65;1.63;;;8.00;99.90;;;;;;5092147;28;20039;-73
2021/01/24 04:09:56;;;;;;;2.13;1.60;;;8.00;99.90;;;;;;5092769;28;20024;-73
2021/01/24 04:12:22;;;;;;;4.05;1.60;;;8.00;99.90;;;;;;5091921;28;20020;-73
2021/01/24 04:14:48;;;;;;;2.42;1.30;;;8.00;99.90;;;;;;5091221;28;20039;-73
2021/01/24 04:17:13;;;;;;;2.65;1.50;;;8.00;99.90;;;;;;5091987;28;20016;-73
2021/01/24 04:19:39;;;;;;;1.58;1.48;;;8.00;99.90;;;;;;5091705;28;20380;-73
2021/01/24 04:22:05;;;;;;;2.50;1.50;;;8.00;99.90;;;;;;5091372;28;20031;-73
2021/01/24 04:24:30;;;;;;;7.10;1.65;;;8.00;99.90;;;;;;5091205;28;20038;-73
2021/01/24 04:26:56;;;;;;;1.27;1.17;;;8.00;99.90;;;;;;5091930;28;20044;-74
2021/01/24 04:29:22;;;;;;;2.80;1.40;;;8.00;99.90;;;;;;5091663;28;20093;-73
2021/01/24 04:31:48;;;;;;;2.30;1.23;;;8.10;99.90;;;;;;5091520;28;20024;-74
2021/01/24 04:34:14;;;;;;;2.28;1.65;;;8.00;99.90;;;;;;5092227;28;20024;-73
2021/01/24 04:36:39;;;;;;;3.50;1.50;;;8.00;99.90;;;;;;5091413;28;20036;-73
2021/01/24 04:39:05;;;;;;;1.92;1.40;;;8.00;99.90;;;;;;5092345;28;20059;-73
2021/01/24 04:41:35;;;;;;;3.75;1.65;;;8.00;99.90;;;;;;5091877;28;20028;-73
2021/01/24 04:44:05;;;;;;;3.58;1.30;;;8.00;99.90;;;;;;5091841;28;20077;-73
2021/01/24 04:46:33;;;;;;;3.55;1.50;;;8.00;99.90;;;;;;5091668;28;20062;-73
2021/01/24 04:49:03;;;;;;;3.08;1.50;;;8.00;99.90;;;;;;5091816;28;20466;-73
2021/01/24 04:51:29;;;;;;;1.75;1.17;;;8.00;99.90;;;;;;5091804;28;20381;-73
2021/01/24 04:53:55;;;;;;;6.25;1.75;;;8.00;99.90;;;;;;5091165;28;20039;-73
2021/01/24 04:56:22;;;;;;;3.40;1.67;;;8.00;99.90;;;;;;5090840;28;20537;-73
2021/01/24 04:58:48;;;;;;;1.95;1.58;;;8.00;99.90;;;;;;5091365;28;20024;-74
2021/01/24 05:01:18;;;;;;;5.55;1.65;;;8.00;99.90;;;;;;5091641;28;20024;-73
2021/01/24 05:03:44;;;;;;;2.10;1.35;;;8.00;99.90;;;;;;5091594;28;20044;-73
2021/01/24 05:06:10;;;;;;;3.00;1.75;;;8.00;99.90;;;;;;5089391;28;20141;-74
2021/01/24 05:08:35;;;;;;;3.30;1.67;;;8.00;99.90;;;;;;5090207;28;20031;-74
2021/01/24 05:11:08;;;;;;;5.93;1.80;;;8.00;99.90;;;;;;5089452;28;20040;-73
2021/01/24 05:13:34;;;;;;;5.65;1.95;;;8.00;99.90;;;;;;5090269;28;20355;-74
2021/01/24 05:16:00;;;;;;;6.55;2.17;;;8.00;99.90;;;;;;5089371;28;20040;-74
2021/01/24 05:18:26;;;;;;;2.10;1.75;;;8.00;99.90;;;;;;5089572;28;20020;-73
2021/01/24 05:20:53;;;;;;;2.85;1.95;;;7.90;99.90;;;;;;5088942;28;20024;-74
2021/01/24 05:23:23;;;;;;;2.53;1.85;;;7.80;99.90;;;;;;5089607;28;20099;-74
2021/01/24 05:25:49;;;;;;;2.88;1.60;;;7.80;99.90;;;;;;5089722;28;20046;-74
2021/01/24 05:28:24;;;;;;;3.38;1.63;;;7.70;99.90;;;;;;5089868;28;20427;-73
2021/01/24 05:30:50;;;;;;;2.45;1.70;;;7.60;99.90;;;;;;5091189;28;20032;-73
2021/01/24 05:33:17;;;;;;;4.07;2.25;;;7.50;99.90;;;;;;5091052;28;20070;-73
2021/01/24 05:35:51;;;;;;;3.22;1.70;;;7.50;99.90;;;;;;5090658;28;20123;-73
2021/01/24 05:38:26;;;;;;;4.28;1.80;;;7.50;99.90;;;;;;5090877;28;20024;-73
2021/01/24 05:40:52;;;;;;;3.50;1.60;;;7.50;99.90;;;;;;5091272;28;20427;-74
2021/01/24 05:43:18;;;;;;;3.53;1.75;;;7.50;99.90;;;;;;5094621;28;20024;-73
2021/01/24 05:45:44;;;;;;;4.03;1.80;;;7.50;99.90;;;;;;5094129;28;20048;-73
2021/01/24 05:48:10;;;;;;;5.38;1.40;;;7.40;99.90;;;;;;5094709;28;20069;-73
2021/01/24 05:50:36;;;;;;;4.82;1.45;;;7.40;99.90;;;;;;5094160;28;20027;-73
2021/01/24 05:53:05;;;;;;;4.00;1.50;;;7.40;99.90;;;;;;5095084;28;20372;-73
2021/01/24 05:55:36;;;;;;;3.03;1.40;;;7.40;99.90;;;;;;5090361;28;20040;-73
2021/01/24 05:58:22;;;;;;;3.80;1.88;;;7.40;99.90;;;;;;5094926;28;20022;-73
2021/01/24 06:00:50;;;;;;;1.85;1.40;;;7.40;99.90;;;;;;5091285;28;20119;-73
2021/01/24 06:03:17;;;;;;;3.58;1.45;;;7.40;99.90;;;;;;5094301;28;20393;-73
2021/01/24 06:05:44;;;;;;;3.00;1.73;;;7.30;99.90;;;;;;5094073;28;20060;-74
2021/01/24 06:08:11;;;;;;;4.40;1.45;;;7.30;99.90;;;;;;5094609;28;20487;-73
2021/01/24 06:10:38;;;;;;;3.78;1.70;;;7.30;99.90;;;;;;5094167;28;20020;-73
2021/01/24 06:13:24;;;;;;;4.47;1.80;;;7.20;99.90;;;;;;5094512;28;20028;-74
2021/01/24 06:15:52;;;;;;;3.33;1.60;;;7.20;99.90;;;;;;5093900;28;20034;-73
2021/01/24 06:18:38;;;;;;;4.38;1.90;;;7.20;99.90;;;;;;5094534;28;20431;-73
2021/01/24 06:21:07;;;;;;;2.85;1.80;;;7.20;99.90;;;;;;5094563;28;20051;-73
2021/01/24 06:23:36;;;;;;;4.15;1.67;;;7.30;99.90;;;;;;5094680;28;20012;-72
2021/01/24 06:26:13;;;;;;;4.63;1.98;;;7.30;99.90;;;;;;5093742;28;20020;-72
2021/01/24 06:28:45;;;;;;;4.05;1.70;;;7.30;99.90;;;;;;5093894;28;20044;-73
2021/01/24 06:31:15;;;;;;;7.68;1.98;;;7.30;99.90;;;;;;5093960;28;20020;-73
2021/01/24 06:33:51;;;;;;;4.22;1.98;;;7.40;99.90;;;;;;5094095;28;20024;-73
2021/01/24 06:36:18;;;;;;;3.83;2.17;;;7.40;99.90;;;;;;5094079;28;19920;-73
2021/01/24 06:38:52;;;;;;;5.88;2.67;;;7.40;99.90;;;;;;5094251;28;20024;-73
2021/01/24 06:41:44;;;;;;;2.72;2.10;;;7.40;99.90;;;;;;5085172;28;20067;-73
2021/01/24 06:44:36;;;;;;;8.10;2.42;;;7.40;99.90;;;;;;5093288;28;20499;-73
2021/01/24 06:47:07;;;;;;;3.00;2.00;;;7.40;99.90;;;;;;5084064;28;20020;-73
2021/01/24 06:49:43;;;;;;;3.78;2.00;;;7.40;99.90;;;;;;5093884;28;20020;-72
2021/01/24 06:52:20;;;;;;;4.43;1.80;;;7.50;99.90;;;;;;5088541;28;20024;-73
2021/01/24 06:54:47;;;;;;;5.45;2.50;;;7.50;99.90;;;;;;5091398;28;20035;-73
2021/01/24 06:57:13;;;;;;;4.32;2.20;;;7.50;99.90;;;;;;5092792;28;20024;-72
2021/01/24 06:59:38;;;;;;;4.97;2.58;;;7.60;99.90;;;;;;5093085;28;20353;-72
2021/01/24 07:02:35;;;;;;;9.13;2.63;;;7.60;99.90;;;;;;5093493;28;20103;-74
2021/01/24 07:05:17;;;;;;;6.10;4.00;;;7.70;99.90;;;;;;5087762;28;20024;-73
2021/01/24 07:07:47;;;;;;;13.80;3.22;;;7.70;99.90;;;;;;5093451;28;20039;-73
2021/01/24 07:10:37;;;;;;;8.32;3.55;;;7.70;99.90;;;;;;5093768;28;20028;-73
2021/01/24 07:13:27;;;;;;;5.88;3.45;;;7.70;99.90;;;;;;5080377;28;20093;-73
2021/01/24 07:15:56;;;;;;;5.57;3.15;;;7.70;99.90;;;;;;5084004;28;20094;-73
2021/01/24 07:18:25;;;;;;;9.80;3.42;;;7.70;99.90;;;;;;5093595;28;20028;-73
2021/01/24 07:20:54;;;;;;;9.52;4.18;;;7.70;99.90;;;;;;5092801;28;20099;-74
2021/01/24 07:23:20;;;;;;;11.88;6.05;;;7.70;99.90;;;;;;5092032;28;20364;-73
2021/01/24 07:25:46;;;;;;;23.55;15.23;;;7.70;99.90;;;;;;5093690;28;20024;-73
2021/01/24 07:28:18;;;;;;;42.83;26.73;;;7.70;99.90;;;;;;5092957;28;20465;-74
2021/01/24 07:30:44;;;;;;;39.47;25.05;;;7.70;99.90;;;;;;5093233;28;20050;-73
2021/01/24 07:33:10;;;;;;;30.48;14.55;;;7.70;99.90;;;;;;5092639;28;20600;-74
2021/01/24 07:35:36;;;;;;;30.35;19.00;;;7.70;99.90;;;;;;5090953;28;20541;-74
2021/01/24 07:38:08;;;;;;;24.70;14.75;;;7.70;99.90;;;;;;5093174;28;20026;-74
2021/01/24 07:40:33;;;;;;;37.50;21.00;;;7.70;99.90;;;;;;5092987;28;20051;-73
2021/01/24 07:42:59;;;;;;;18.80;8.98;;;7.80;99.90;;;;;;5093049;28;20024;-73
2021/01/24 07:45:25;;;;;;;8.48;5.32;;;7.80;99.90;;;;;;5093078;28;20028;-72
2021/01/24 07:47:52;;;;;;;6.65;3.25;;;7.90;99.90;;;;;;5091612;28;20024;-73
2021/01/24 07:50:18;;;;;;;11.45;3.17;;;7.90;99.90;;;;;;5092283;28;20043;-73
2021/01/24 07:52:44;;;;;;;8.80;3.50;;;8.00;99.90;;;;;;5092965;28;20044;-74
2021/01/24 07:55:11;;;;;;;6.78;3.30;;;8.00;99.90;;;;;;5091738;28;20119;-74
2021/01/24 07:57:40;;;;;;;6.40;3.70;;;8.00;99.90;;;;;;5092007;28;20357;-73
2021/01/24 08:00:06;;;;;;;6.63;3.47;;;8.10;99.90;;;;;;5092256;28;20038;-74
2021/01/24 08:02:33;;;;;;;13.90;3.40;;;8.10;99.90;;;;;;5092349;28;20059;-74
2021/01/24 08:05:07;;;;;;;5.10;3.28;;;8.10;99.90;;;;;;5091910;28;20028;-73
2021/01/24 08:07:33;;;;;;;6.85;3.13;;;8.20;99.90;;;;;;5089391;28;20020;-74
2021/01/24 08:09:59;;;;;;;5.13;2.45;;;8.20;99.90;;;;;;5091750;28;20035;-74
2021/01/24 08:12:25;;;;;;;4.35;2.53;;;8.20;99.90;;;;;;5092533;28;20020;-73
2021/01/24 08:14:52;;;;;;;4.45;2.63;;;8.20;99.90;;;;;;5092427;28;20101;-74
2021/01/24 08:17:19;;;;;;;3.83;2.45;;;8.20;99.90;;;;;;5093198;28;20131;-73
2021/01/24 08:19:46;;;;;;;7.25;3.22;;;8.20;99.90;;;;;;5092454;28;20045;-74
2021/01/24 08:22:12;;;;;;;5.30;2.97;;;8.20;99.90;;;;;;5089817;28;20035;-74
2021/01/24 08:24:39;;;;;;;5.78;3.30;;;8.30;99.90;;;;;;5091673;28;20024;-73
2021/01/24 08:27:05;;;;;;;11.50;3.30;;;8.30;99.90;;;;;;5091605;28;20052;-73
2021/01/24 08:29:35;;;;;;;11.00;2.80;;;8.30;99.90;;;;;;5092109;28;20550;-72
2021/01/24 08:32:05;;;;;;;7.80;2.53;;;8.40;99.90;;;;;;5090573;28;20055;-73
2021/01/24 08:34:33;;;;;;;8.70;3.13;;;8.40;99.90;;;;;;5090721;28;20119;-73
2021/01/24 08:37:00;;;;;;;7.00;3.45;;;8.50;99.90;;;;;;5089660;28;20019;-74
2021/01/24 08:39:27;;;;;;;10.95;5.60;;;8.50;99.90;;;;;;5091279;28;20074;-74
2021/01/24 08:41:54;;;;;;;7.65;4.32;;;8.50;99.90;;;;;;5090534;28;20024;-75
2021/01/24 08:44:20;;;;;;;8.70;3.00;;;8.60;99.90;;;;;;5090897;28;20380;-73
2021/01/24 08:46:48;;;;;;;4.55;3.03;;;8.60;99.90;;;;;;5091148;28;21201;-75
2021/01/24 08:49:30;;;;;;;5.15;3.20;;;8.60;99.90;;;;;;5089870;28;20121;-74
2021/01/24 08:52:05;;;;;;;4.68;3.10;;;8.70;99.90;;;;;;5091184;28;20464;-75
2021/01/24 08:54:31;;;;;;;8.50;4.38;;;8.70;99.90;;;;;;5091030;28;20039;-75
2021/01/24 08:57:13;;;;;;;9.07;3.35;;;8.80;99.90;;;;;;5090331;28;20024;-74
2021/01/24 09:00:00;;;;;;;9.45;3.55;;;8.80;99.90;;;;;;5091070;28;20462;-73
2021/01/24 09:02:34;;;;;;;6.15;4.15;;;8.90;99.90;;;;;;5089695;28;20044;-75
2021/01/24 09:05:03;;;;;;;7.82;5.22;;;8.90;99.90;;;;;;5091080;28;20123;-75
2021/01/24 09:07:36;;;;;;;12.50;7.57;;;8.90;99.90;;;;;;5077994;28;20048;-76
2021/01/24 09:10:15;;;;;;;12.13;5.85;;;9.00;99.90;;;;;;5090447;28;20050;-75
2021/01/24 09:12:42;;;;;;;8.98;3.92;;;9.00;99.90;;;;;;5090040;28;20028;-74
2021/01/24 09:15:08;;;;;;;11.07;3.92;;;9.00;99.90;;;;;;5082745;28;20028;-73
2021/01/24 09:17:34;;;;;;;6.55;3.88;;;9.00;99.90;;;;;;5077873;28;20456;-73
2021/01/24 09:19:59;;;;;;;6.60;4.20;;;9.10;99.90;;;;;;5084728;28;20086;-75
2021/01/24 09:22:25;;;;;;;13.30;4.70;;;9.10;99.90;;;;;;5089607;28;20016;-77
2021/01/24 09:24:51;;;;;;;16.65;7.22;;;9.10;99.90;;;;;;5086831;28;20024;-75
2021/01/24 09:27:17;;;;;;;25.92;11.85;;;9.20;99.90;;;;;;5091343;28;20114;-74
2021/01/24 09:29:43;;;;;;;28.75;17.05;;;9.20;99.90;;;;;;5095649;28;20059;-74
2021/01/24 09:32:09;;;;;;;31.98;17.70;;;9.20;99.90;;;;;;5093915;28;20016;-77
2021/01/24 09:34:36;;;;;;;29.23;13.05;;;9.20;99.90;;;;;;5087823;28;20024;-73
2021/01/24 09:37:02;;;;;;;22.02;10.73;;;9.20;99.90;;;;;;5087886;28;20027;-73
2021/01/24 09:39:28;;;;;;;26.33;12.73;;;9.20;99.90;;;;;;5095130;28;20086;-77
2021/01/24 09:41:54;;;;;;;27.95;14.85;;;9.20;99.90;;;;;;5091061;28;20065;-76
2021/01/24 09:44:20;;;;;;;28.50;13.15;;;9.20;99.90;;;;;;5093245;28;20066;-77
2021/01/24 09:46:46;;;;;;;29.52;15.48;;;9.30;99.90;;;;;;5095206;28;20024;-77
2021/01/24 09:49:12;;;;;;;17.45;9.95;;;9.30;99.90;;;;;;5095614;28;20024;-73
2021/01/24 09:51:37;;;;;;;22.48;10.50;;;9.30;99.90;;;;;;5088617;28;20020;-76
2021/01/24 09:54:04;;;;;;;24.73;13.90;;;9.30;99.90;;;;;;5092856;28;20024;-73
2021/01/24 09:56:30;;;;;;;38.05;23.98;;;9.30;99.90;;;;;;5084352;28;20700;-74
2021/01/24 09:58:57;;;;;;;29.35;18.98;;;9.30;99.90;;;;;;5082787;28;20437;-72
2021/01/24 10:01:23;;;;;;;22.48;14.05;;;9.40;99.90;;;;;;5089459;28;20116;-73
2021/01/24 10:03:50;;;;;;;27.30;13.75;;;9.30;99.90;;;;;;5093951;28;20078;-73
2021/01/24 10:06:17;;;;;;;29.75;15.93;;;9.40;99.90;;;;;;5092897;28;20024;-74
2021/01/24 10:08:44;;;;;;;29.58;14.73;;;9.40;99.90;;;;;;5093559;28;20028;-75
2021/01/24 10:11:10;;;;;;;28.65;16.75;;;9.40;99.90;;;;;;5093789;28;20396;-74
2021/01/24 10:13:35;;;;;;;36.85;22.52;;;9.40;99.90;;;;;;5093199;28;20020;-74
2021/01/24 10:16:01;;;;;;;21.65;13.63;;;9.40;99.90;;;;;;5089248;28;20129;-74
2021/01/24 10:18:27;;;;;;;23.88;12.80;;;9.40;99.90;;;;;;5091940;28;20101;-75
2021/01/24 10:20:53;;;;;;;72.75;52.55;;;9.40;99.90;;;;;;5093067;28;20028;-74
2021/01/24 10:23:23;;;;;;;26.67;14.18;;;9.40;99.90;;;;;;5093895;28;20448;-75
2021/01/24 10:25:50;;;;;;;26.92;16.30;;;9.40;99.90;;;;;;5093670;28;20027;-74
2021/01/24 10:28:17;;;;;;;22.88;14.35;;;9.40;99.90;;;;;;5093060;28;20426;-73
2021/01/24 10:30:43;;;;;;;35.15;17.48;;;9.40;99.90;;;;;;5092529;28;20024;-74
2021/01/24 10:33:10;;;;;;;34.80;20.83;;;9.40;99.90;;;;;;5089751;28;20109;-76
2021/01/24 10:35:37;;;;;;;37.47;22.25;;;9.50;99.90;;;;;;5089175;28;20163;-74
2021/01/24 10:38:03;;;;;;;34.33;19.90;;;9.50;99.90;;;;;;5092446;28;20027;-74
2021/01/24 10:40:29;;;;;;;34.75;19.20;;;9.60;99.90;;;;;;5090666;28;20024;-72
2021/01/24 10:42:56;;;;;;;27.00;17.75;;;9.60;99.90;;;;;;5092676;28;20494;-73
2021/01/24 10:45:23;;;;;;;27.08;16.35;;;9.70;99.90;;;;;;5091999;28;20050;-75
2021/01/24 10:47:49;;;;;;;40.63;14.98;;;9.70;99.90;;;;;;5091687;28;20338;-75
2021/01/24 10:50:14;;;;;;;20.20;11.48;;;9.70;99.90;;;;;;5086915;28;21718;-75
2021/01/24 10:52:40;;;;;;;17.60;12.48;;;9.70;99.90;;;;;;5092488;28;20081;-75
2021/01/24 10:55:07;;;;;;;20.45;11.18;;;9.60;99.90;;;;;;5093672;28;20089;-75
2021/01/24 10:57:32;;;;;;;19.85;9.52;;;9.60;99.90;;;;;;5093262;28;20028;-75
2021/01/24 10:59:58;;;;;;;16.60;10.63;;;9.50;99.90;;;;;;5093292;28;20494;-75
2021/01/24 11:02:24;;;;;;;16.27;7.43;;;9.50;99.90;;;;;;5090200;28;20624;-73
2021/01/24 11:04:49;;;;;;;15.38;6.97;;;9.50;99.90;;;;;;5091414;28;20487;-75
2021/01/24 11:07:15;;;;;;;11.95;7.13;;;9.40;99.90;;;;;;5087689;28;20102;-75
2021/01/24 11:09:41;;;;;;;16.95;6.53;;;9.40;99.90;;;;;;5089636;28;20040;-75
2021/01/24 11:12:07;;;;;;;20.23;6.38;;;9.40;99.90;;;;;;5090929;28;20012;-75
2021/01/24 11:14:34;;;;;;;18.90;7.80;;;9.50;99.90;;;;;;5090743;28;20052;-75
2021/01/24 11:16:59;;;;;;;25.10;16.27;;;9.40;99.90;;;;;;5090655;28;20112;-75
2021/01/24 11:19:25;;;;;;;11.82;6.53;;;9.40;99.90;;;;;;5090464;28;20075;-75
2021/01/24 11:21:50;;;;;;;17.45;7.47;;;9.40;99.90;;;;;;5088772;28;20035;-75
2021/01/24 11:24:16;;;;;;;12.75;6.88;;;9.30;99.90;;;;;;5091359;28;20023;-75
2021/01/24 11:26:43;;;;;;;13.90;5.80;;;9.40;99.90;;;;;;5090036;28;20023;-75
2021/01/24 11:29:08;;;;;;;14.40;7.00;;;9.40;99.90;;;;;;5091394;28;20028;-75
2021/01/24 11:31:34;;;;;;;10.55;4.22;;;9.30;99.90;;;;;;5090630;28;20016;-75
2021/01/24 11:34:00;;;;;;;12.80;5.45;;;9.30;99.90;;;;;;5090430;28;20032;-75
2021/01/24 11:36:26;;;;;;;14.70;5.07;;;9.30;99.90;;;;;;5081954;28;20400;-75
2021/01/24 11:38:52;;;;;;;14.48;6.78;;;9.20;99.90;;;;;;5089480;28;20028;-75
2021/01/24 11:41:18;;;;;;;19.58;7.20;;;9.20;99.90;;;;;;5091717;28;20028;-74
2021/01/24 11:43:43;;;;;;;15.25;6.68;;;9.20;99.90;;;;;;5089892;28;20460;-75
2021/01/24 11:46:09;;;;;;;14.27;7.00;;;9.20;99.90;;;;;;5090073;28;20044;-75
2021/01/24 11:48:35;;;;;;;12.68;5.10;;;9.20;99.90;;;;;;5090969;28;20061;-75
2021/01/24 11:51:01;;;;;;;8.45;4.93;;;9.10;99.90;;;;;;5091294;28;20020;-76
2021/01/24 11:53:26;;;;;;;10.52;4.03;;;9.10;99.90;;;;;;5092289;28;20027;-75
2021/01/24 11:55:52;;;;;;;9.50;5.13;;;9.00;99.90;;;;;;5090500;28;20115;-75
2021/01/24 11:58:21;;;;;;;10.23;4.93;;;8.90;99.90;;;;;;5090040;28;20020;-75
2021/01/24 12:00:47;;;;;;;15.13;5.63;;;8.90;99.90;;;;;;5089375;28;20055;-75
2021/01/24 12:03:13;;;;;;;9.80;3.63;;;8.90;99.90;;;;;;5090322;28;20165;-75
2021/01/24 12:05:39;;;;;;;8.25;2.83;;;8.90;99.90;;;;;;5090211;28;20065;-75
2021/01/24 12:08:06;;;;;;;7.40;2.97;;;8.90;99.90;;;;;;5089886;28;20447;-74
2021/01/24 12:10:32;;;;;;;3.92;2.15;;;8.80;99.90;;;;;;5090120;28;20046;-73
2021/01/24 12:12:58;;;;;;;6.97;2.97;;;8.90;99.90;;;;;;5090928;28;20035;-75
2021/01/24 12:15:24;;;;;;;9.57;5.25;;;8.80;99.90;;;;;;5089894;28;20036;-75
2021/01/24 12:17:50;;;;;;;7.00;3.42;;;8.80;99.90;;;;;;5090434;28;20038;-74
2021/01/24 12:20:16;;;;;;;6.88;4.43;;;8.70;99.90;;;;;;5085983;28;20028;-75
2021/01/24 12:22:41;;;;;;;7.00;2.90;;;8.70;99.90;;;;;;5090537;28;20035;-75
2021/01/24 12:25:08;;;;;;;8.32;3.65;;;8.60;99.90;;;;;;5088357;28;20099;-75
2021/01/24 12:27:34;;;;;;;5.95;2.65;;;8.60;99.90;;;;;;5090115;28;20024;-74
2021/01/24 12:30:00;;;;;;;8.07;3.20;;;8.60;99.90;;;;;;5091125;28;20106;-74
2021/01/24 12:32:26;;;;;;;10.80;8.05;;;8.60;99.90;;;;;;5091669;28;20020;-74
2021/01/24 12:34:52;;;;;;;12.02;6.65;;;8.50;99.90;;;;;;5091827;28;20048;-73
2021/01/24 12:37:18;;;;;;;7.38;3.65;;;8.60;99.90;;;;;;5090471;28;20031;-74
2021/01/24 12:39:43;;;;;;;8.98;4.40;;;8.50;99.90;;;;;;5091219;28;20499;-75
2021/01/24 12:42:09;;;;;;;12.50;5.32;;;8.50;99.90;;;;;;5090174;28;20464;-75
2021/01/24 12:44:35;;;;;;;20.05;7.28;;;8.60;99.90;;;;;;5090819;28;20094;-75
2021/01/24 12:47:00;;;;;;;25.80;13.48;;;8.60;99.90;;;;;;5090621;28;20027;-74
2021/01/24 12:49:26;;;;;;;20.30;11.52;;;8.60;99.90;;;;;;5087505;28;20560;-75
2021/01/24 12:51:52;;;;;;;15.45;7.35;;;8.70;99.90;;;;;;5082190;28;20032;-75
2021/01/24 12:54:17;;;;;;;14.00;7.47;;;8.70;99.90;;;;;;5083692;28;20024;-74